Time;durP1;ratioP1;P1;durP2;ratioP2;P2;SDS_P1;SDS_P2;PMS_P1;PMS_P2;Temp;Humidity;BMP_temperature;BMP_pressure;BME280_temperature;BME280_humidity;BME280_pressure;Samples;Min_cycle;Max_cycle;Signal;HPM_P1;HPM_P2
2023/10/29 00:00:20;;;;;;;2.28;0.50;;;14.70;99.90;;;;;;4969566;28;87732;-80
2023/10/29 00:02:45;;;;;;;1.92;0.43;;;14.60;99.90;;;;;;4988622;28;87578;-77
2023/10/29 00:05:11;;;;;;;3.40;0.50;;;14.70;99.90;;;;;;4972464;28;91030;-79
2023/10/29 00:07:37;;;;;;;3.83;0.80;;;14.60;99.90;;;;;;4969537;28;90414;-78
2023/10/29 00:10:02;;;;;;;2.03;0.40;;;14.70;99.90;;;;;;4971714;28;88868;-77
2023/10/29 00:12:28;;;;;;;2.95;0.50;;;14.70;99.90;;;;;;4977699;28;91236;-78
2023/10/29 00:14:54;;;;;;;1.80;0.43;;;14.60;99.90;;;;;;4987745;28;87834;-78
2023/10/29 00:17:19;;;;;;;3.90;0.77;;;14.60;99.90;;;;;;4973891;28;90666;-78
2023/10/29 00:19:45;;;;;;;3.20;0.80;;;14.60;99.90;;;;;;4989228;28;87990;-80
2023/10/29 00:22:19;;;;;;;4.13;0.57;;;14.60;99.90;;;;;;4956078;28;90592;-78
2023/10/29 00:24:45;;;;;;;2.65;0.55;;;14.60;99.90;;;;;;4970650;28;91554;-78
2023/10/29 00:27:12;;;;;;;6.03;0.70;;;14.50;99.90;;;;;;4992528;28;87839;-77
2023/10/29 00:29:38;;;;;;;2.25;0.43;;;14.50;99.90;;;;;;4989486;28;87834;-78
2023/10/29 00:32:04;;;;;;;1.80;0.43;;;14.50;99.90;;;;;;4972332;28;90256;-77
2023/10/29 00:34:29;;;;;;;2.20;0.50;;;14.50;99.90;;;;;;4970339;28;88895;-77
2023/10/29 00:36:55;;;;;;;2.25;0.60;;;14.60;99.90;;;;;;4972223;28;92088;-80
2023/10/29 00:39:20;;;;;;;2.55;0.65;;;14.60;99.90;;;;;;4971981;28;87419;-80
2023/10/29 00:41:46;;;;;;;3.67;0.82;;;14.50;99.90;;;;;;4991376;28;87894;-78
2023/10/29 00:44:12;;;;;;;7.03;0.80;;;14.50;99.90;;;;;;4972602;28;91384;-77
2023/10/29 00:46:40;;;;;;;4.82;0.52;;;14.50;99.90;;;;;;4973430;28;91214;-78
2023/10/29 00:49:06;;;;;;;2.47;0.50;;;14.50;99.90;;;;;;4973144;28;87807;-77
2023/10/29 00:51:32;;;;;;;1.58;0.80;;;14.50;99.90;;;;;;4991187;28;87307;-78
2023/10/29 00:53:58;;;;;;;3.45;0.50;;;14.50;99.90;;;;;;4972933;28;91375;-78
2023/10/29 00:56:27;;;;;;;2.35;0.50;;;14.40;99.90;;;;;;4974234;28;90457;-79
2023/10/29 00:59:01;;;;;;;3.03;0.73;;;14.50;99.90;;;;;;4972948;28;88608;-79
2023/10/29 01:01:26;;;;;;;2.17;0.50;;;14.40;99.90;;;;;;4968181;28;89877;-78
2023/10/29 01:03:52;;;;;;;1.63;0.50;;;14.40;99.90;;;;;;4985405;28;88351;-77
2023/10/29 01:06:18;;;;;;;1.80;0.50;;;14.40;99.90;;;;;;4984493;28;88105;-78
2023/10/29 01:08:44;;;;;;;3.70;0.80;;;14.40;99.90;;;;;;4966323;28;88639;-77
2023/10/29 01:11:10;;;;;;;0.60;0.40;;;14.30;99.90;;;;;;4967892;28;90528;-78
2023/10/29 01:13:35;;;;;;;2.75;0.70;;;14.30;99.90;;;;;;4969221;28;92227;-78
2023/10/29 01:16:04;;;;;;;3.15;0.57;;;14.20;99.90;;;;;;4989128;28;87315;-78
2023/10/29 01:18:33;;;;;;;2.83;0.50;;;14.20;99.90;;;;;;4969730;28;87924;-79
2023/10/29 01:20:59;;;;;;;1.55;0.60;;;14.20;99.90;;;;;;4968656;28;91041;-77
2023/10/29 01:23:28;;;;;;;2.72;0.70;;;14.10;99.90;;;;;;4985134;28;92251;-78
2023/10/29 01:25:55;;;;;;;5.90;0.68;;;14.10;99.90;;;;;;4968311;28;92867;-78
2023/10/29 01:28:21;;;;;;;3.60;1.00;;;14.10;99.90;;;;;;4970336;28;88091;-78
2023/10/29 01:30:47;;;;;;;3.92;0.50;;;14.00;99.90;;;;;;4970384;28;89924;-77
2023/10/29 01:33:12;;;;;;;4.40;0.50;;;14.00;99.90;;;;;;4969430;28;91823;-77
2023/10/29 01:35:38;;;;;;;1.70;0.57;;;14.00;99.90;;;;;;4969753;28;91216;-78
2023/10/29 01:38:06;;;;;;;2.00;0.60;;;13.90;99.90;;;;;;4968377;28;87685;-79
2023/10/29 01:40:32;;;;;;;1.85;0.45;;;14.00;99.90;;;;;;4969172;28;90105;-80
2023/10/29 01:42:58;;;;;;;4.50;0.70;;;13.90;99.90;;;;;;4966976;28;91510;-79
2023/10/29 01:45:30;;;;;;;2.90;0.60;;;14.00;99.90;;;;;;4985040;28;88784;-78
2023/10/29 01:47:56;;;;;;;3.15;0.73;;;14.00;99.90;;;;;;4987590;28;88158;-78
2023/10/29 01:50:24;;;;;;;3.95;0.63;;;14.00;99.90;;;;;;4986034;28;88004;-79
2023/10/29 01:52:53;;;;;;;3.00;1.08;;;14.00;99.90;;;;;;4987401;28;88618;-77
2023/10/29 01:55:19;;;;;;;2.30;0.50;;;14.00;99.90;;;;;;4970393;28;91748;-78
2023/10/29 01:57:45;;;;;;;2.50;0.30;;;14.10;99.90;;;;;;4988584;28;88094;-78
2023/10/29 02:00:11;;;;;;;2.78;0.50;;;14.10;99.90;;;;;;4971141;28;90215;-77
2023/10/29 02:02:37;;;;;;;2.30;0.40;;;14.10;99.90;;;;;;4968976;28;92325;-80
2023/10/29 02:05:06;;;;;;;3.08;0.40;;;14.20;99.90;;;;;;4970008;28;90660;-78
2023/10/29 02:07:31;;;;;;;1.45;0.30;;;14.20;99.90;;;;;;4969082;28;88663;-78
2023/10/29 02:09:57;;;;;;;2.13;0.40;;;14.20;99.90;;;;;;4968919;28;90555;-78
2023/10/29 02:12:23;;;;;;;3.13;0.50;;;14.20;99.90;;;;;;4984963;28;89250;-78
2023/10/29 02:14:52;;;;;;;1.17;0.50;;;14.20;99.90;;;;;;4968909;28;91135;-79
2023/10/29 02:17:17;;;;;;;1.27;0.50;;;14.20;99.90;;;;;;4969392;28;88299;-79
2023/10/29 02:19:48;;;;;;;2.88;0.40;;;14.20;99.90;;;;;;4986855;28;87512;-80
2023/10/29 02:22:16;;;;;;;2.17;0.40;;;14.20;99.90;;;;;;4968705;28;90972;-77
2023/10/29 02:24:49;;;;;;;4.03;0.52;;;14.20;99.90;;;;;;4969679;28;91604;-77
2023/10/29 02:27:15;;;;;;;1.63;0.43;;;14.20;99.90;;;;;;4971503;28;87601;-78
2023/10/29 02:29:40;;;;;;;2.90;1.38;;;14.20;99.90;;;;;;4991335;28;88540;-77
2023/10/29 02:32:06;;;;;;;0.65;0.30;;;14.20;99.90;;;;;;4991448;28;88076;-77
2023/10/29 02:34:32;;;;;;;1.17;0.30;;;14.20;99.90;;;;;;4987648;28;89876;-78
2023/10/29 02:36:57;;;;;;;1.67;0.28;;;14.20;99.90;;;;;;4988460;28;88401;-78
2023/10/29 02:39:23;;;;;;;3.15;0.40;;;14.20;99.90;;;;;;4988739;28;87663;-77
2023/10/29 02:41:49;;;;;;;2.45;0.70;;;14.20;99.90;;;;;;4988987;28;87890;-78
2023/10/29 02:44:14;;;;;;;2.22;0.50;;;14.20;99.90;;;;;;4988545;28;87940;-78
2023/10/29 02:46:40;;;;;;;6.57;0.43;;;14.30;99.90;;;;;;4989411;28;87668;-78
2023/10/29 02:49:06;;;;;;;2.47;0.50;;;14.20;99.90;;;;;;4987318;28;88140;-78
2023/10/29 02:51:32;;;;;;;2.47;0.50;;;14.30;99.90;;;;;;4970292;28;91205;-77
2023/10/29 02:53:57;;;;;;;2.25;0.40;;;14.30;99.90;;;;;;4986844;28;88082;-78
2023/10/29 02:56:23;;;;;;;1.70;0.50;;;14.30;99.90;;;;;;4970929;28;87933;-78
2023/10/29 02:58:48;;;;;;;1.83;0.40;;;14.30;99.90;;;;;;4971568;28;89439;-77
2023/10/29 03:01:15;;;;;;;0.98;0.30;;;14.30;99.90;;;;;;4969166;28;92046;-79
2023/10/29 03:03:41;;;;;;;1.52;0.30;;;14.30;99.90;;;;;;4971022;28;92273;-78
2023/10/29 03:06:09;;;;;;;1.02;0.60;;;14.30;99.90;;;;;;4992707;28;87628;-78
2023/10/29 03:08:35;;;;;;;1.80;0.50;;;14.40;99.90;;;;;;4970743;28;90988;-78
2023/10/29 03:11:21;;;;;;;0.85;0.47;;;14.40;99.90;;;;;;4970406;28;91175;-78
2023/10/29 03:13:46;;;;;;;0.70;0.40;;;14.40;99.90;;;;;;4968955;28;90895;-77
2023/10/29 03:16:12;;;;;;;3.30;0.40;;;14.40;99.90;;;;;;4989456;28;88255;-78
2023/10/29 03:18:38;;;;;;;1.42;0.45;;;14.40;99.90;;;;;;4972255;28;90421;-78
2023/10/29 03:21:06;;;;;;;0.95;0.63;;;14.30;99.90;;;;;;4971791;28;91565;-78
2023/10/29 03:23:32;;;;;;;3.53;0.40;;;14.30;99.90;;;;;;4988404;28;91750;-78
2023/10/29 03:26:02;;;;;;;3.00;0.50;;;14.30;99.90;;;;;;4975156;28;88670;-77
2023/10/29 03:28:28;;;;;;;0.82;0.40;;;14.40;99.90;;;;;;4975463;28;89084;-81
2023/10/29 03:30:55;;;;;;;0.80;0.45;;;14.40;99.90;;;;;;4973890;28;91870;-78
2023/10/29 03:33:20;;;;;;;3.63;0.50;;;14.40;99.90;;;;;;4973614;28;91193;-78
2023/10/29 03:35:49;;;;;;;1.60;0.40;;;14.40;99.90;;;;;;4973810;28;87570;-78
2023/10/29 03:38:15;;;;;;;1.90;0.30;;;14.40;99.90;;;;;;4975270;28;89612;-77
2023/10/29 03:40:40;;;;;;;2.80;0.35;;;14.50;99.90;;;;;;4992553;28;88491;-77
2023/10/29 03:43:14;;;;;;;1.88;0.60;;;14.50;99.90;;;;;;4990934;28;88082;-79
2023/10/29 03:45:39;;;;;;;2.25;0.40;;;14.50;99.90;;;;;;4991684;28;87570;-78
2023/10/29 03:48:15;;;;;;;2.38;0.40;;;14.40;99.90;;;;;;4990495;28;87703;-76
2023/10/29 03:51:01;;;;;;;2.28;0.40;;;14.40;99.90;;;;;;4989841;28;88907;-76
2023/10/29 03:53:26;;;;;;;2.58;0.38;;;14.40;99.90;;;;;;4970732;28;92893;-80
2023/10/29 03:55:53;;;;;;;4.03;0.68;;;14.40;99.90;;;;;;4992198;28;87518;-77
2023/10/29 03:58:18;;;;;;;2.42;0.40;;;14.30;99.90;;;;;;4991328;28;87764;-77
2023/10/29 04:00:55;;;;;;;2.20;0.40;;;14.40;99.90;;;;;;4973059;28;91799;-79
2023/10/29 04:03:21;;;;;;;2.53;0.40;;;14.40;99.90;;;;;;4987206;28;90070;-79
2023/10/29 04:05:47;;;;;;;6.90;0.63;;;14.40;99.90;;;;;;4972922;28;87644;-78
2023/10/29 04:08:13;;;;;;;3.25;0.50;;;14.40;99.90;;;;;;4992063;28;87415;-79
2023/10/29 04:10:39;;;;;;;1.60;0.60;;;14.40;99.90;;;;;;4992000;28;87628;-78
2023/10/29 04:13:04;;;;;;;4.80;0.40;;;14.40;99.90;;;;;;4972253;28;91519;-79
2023/10/29 04:15:30;;;;;;;2.03;0.40;;;14.40;99.90;;;;;;4987650;28;88802;-78
2023/10/29 04:17:59;;;;;;;4.65;0.90;;;14.40;99.90;;;;;;4970973;28;90344;-78
2023/10/29 09:35:42;;;;;;;5.82;1.00;;;13.10;99.90;;;;;;5062706;27;86339;-74
2023/10/29 09:38:11;;;;;;;10.45;0.98;;;13.50;99.90;;;;;;5041424;27;86218;-74
2023/10/29 09:40:37;;;;;;;8.52;1.48;;;13.60;99.90;;;;;;5040561;27;86835;-74
2023/10/29 09:43:07;;;;;;;4.50;0.68;;;13.70;99.90;;;;;;5040079;27;88464;-74
2023/10/29 09:45:45;;;;;;;7.97;1.00;;;13.80;99.90;;;;;;5016121;27;88987;-74
2023/10/29 09:48:17;;;;;;;7.65;0.93;;;13.90;99.90;;;;;;5022916;27;86578;-74
2023/10/29 09:50:47;;;;;;;5.57;0.93;;;14.00;99.90;;;;;;5022243;27;86844;-74
2023/10/29 09:53:15;;;;;;;6.13;0.82;;;14.10;99.90;;;;;;5044237;27;86612;-74
2023/10/29 09:55:40;;;;;;;6.53;0.82;;;14.20;99.90;;;;;;5015440;27;91449;-73
2023/10/29 09:58:06;;;;;;;12.98;1.77;;;14.20;99.90;;;;;;5012244;27;86381;-74
2023/10/29 10:00:34;;;;;;;10.32;1.73;;;14.30;99.90;;;;;;5040344;27;86942;-73
2023/10/29 10:03:00;;;;;;;11.02;0.90;;;14.40;99.90;;;;;;5020927;27;90696;-75
2023/10/29 10:05:28;;;;;;;6.57;0.80;;;14.40;99.90;;;;;;5022184;27;89724;-73
2023/10/29 10:07:55;;;;;;;7.65;0.68;;;14.40;99.90;;;;;;5041692;27;86281;-76
2023/10/29 10:10:34;;;;;;;4.35;0.77;;;14.40;99.90;;;;;;5040871;27;86412;-75
2023/10/29 10:12:59;;;;;;;7.85;0.90;;;14.40;99.90;;;;;;5044125;27;86851;-76
2023/10/29 10:15:25;;;;;;;5.78;0.73;;;14.40;99.90;;;;;;5014409;27;89429;-76
2023/10/29 10:18:05;;;;;;;10.80;1.80;;;14.40;99.90;;;;;;5043687;27;86405;-78
2023/10/29 10:20:36;;;;;;;5.97;1.05;;;14.40;99.90;;;;;;5028218;27;86742;-76
2023/10/29 10:23:10;;;;;;;10.55;1.00;;;14.50;99.90;;;;;;5025469;27;94444;-75
2023/10/29 10:25:40;;;;;;;4.30;0.50;;;14.50;99.90;;;;;;5024607;27;88096;-76
2023/10/29 10:28:06;;;;;;;5.45;0.90;;;14.40;99.90;;;;;;5019068;27;86436;-76
2023/10/29 10:30:38;;;;;;;8.48;1.00;;;14.50;99.90;;;;;;5043925;27;86627;-76
2023/10/29 10:33:28;;;;;;;6.78;1.10;;;14.50;99.90;;;;;;5019437;27;90436;-77
2023/10/29 10:35:56;;;;;;;7.68;0.90;;;14.50;99.90;;;;;;5019988;27;86308;-76
2023/10/29 10:38:27;;;;;;;5.82;1.42;;;14.50;99.90;;;;;;5029746;28;86900;-76
2023/10/29 10:41:00;;;;;;;8.50;1.05;;;14.50;99.90;;;;;;5008000;28;86562;-76
2023/10/29 10:43:27;;;;;;;6.03;0.82;;;14.50;99.90;;;;;;5011551;28;90032;-77
2023/10/29 10:45:55;;;;;;;8.93;1.17;;;14.50;99.90;;;;;;5029042;28;87268;-77
2023/10/29 10:48:21;;;;;;;4.35;0.82;;;14.40;99.90;;;;;;5003689;28;86813;-76
2023/10/29 10:50:47;;;;;;;7.63;0.90;;;14.40;99.90;;;;;;4990781;28;86629;-78
2023/10/29 10:53:19;;;;;;;7.22;0.70;;;14.40;99.90;;;;;;5018637;28;86443;-77
2023/10/29 10:55:46;;;;;;;4.00;1.00;;;14.40;99.90;;;;;;5030733;27;87183;-76
2023/10/29 10:58:19;;;;;;;10.70;1.55;;;14.40;99.90;;;;;;5011579;28;85902;-75
2023/10/29 11:00:49;;;;;;;6.78;0.90;;;14.40;99.90;;;;;;5029191;28;85911;-77
2023/10/29 11:03:19;;;;;;;7.70;1.00;;;14.30;99.90;;;;;;5030143;28;87068;-75
2023/10/29 11:05:46;;;;;;;4.65;0.77;;;14.30;99.90;;;;;;5005479;28;89881;-75
2023/10/29 11:08:16;;;;;;;4.82;1.20;;;14.30;99.90;;;;;;5031025;28;86093;-77
2023/10/29 11:10:46;;;;;;;9.15;1.30;;;14.30;99.90;;;;;;5002906;28;86175;-77
2023/10/29 11:13:21;;;;;;;5.38;0.70;;;14.30;99.90;;;;;;5004726;28;91141;-76
2023/10/29 11:15:48;;;;;;;4.57;0.80;;;14.30;99.90;;;;;;5029782;28;86741;-76
2023/10/29 11:18:14;;;;;;;7.07;1.02;;;14.40;99.90;;;;;;5001524;28;86448;-74
2023/10/29 11:20:42;;;;;;;9.60;1.13;;;14.40;99.90;;;;;;5011854;28;86601;-76
2023/10/29 11:23:16;;;;;;;10.90;1.05;;;14.60;99.90;;;;;;5029506;28;86762;-77
2023/10/29 11:25:42;;;;;;;6.18;1.30;;;14.70;99.90;;;;;;5028490;27;89283;-79
2023/10/29 11:28:34;;;;;;;8.00;1.65;;;14.80;99.90;;;;;;5004764;28;87042;-76
2023/10/29 11:31:14;;;;;;;7.65;1.38;;;14.90;99.90;;;;;;5008727;28;86840;-79
2023/10/29 11:33:50;;;;;;;8.30;0.88;;;15.00;99.90;;;;;;4999845;28;90774;-76
2023/10/29 11:36:34;;;;;;;10.85;1.13;;;15.00;99.90;;;;;;5008255;28;89735;-76
2023/10/29 11:39:16;;;;;;;5.82;0.73;;;15.00;99.90;;;;;;5006986;28;86947;-76
2023/10/29 11:42:28;;;;;;;6.93;0.95;;;15.10;99.90;;;;;;5030497;28;87018;-76
2023/10/29 11:45:28;;;;;;;6.93;0.70;;;15.10;99.90;;;;;;5012941;28;90437;-78
2023/10/29 11:48:10;;;;;;;5.10;0.73;;;15.20;99.90;;;;;;5031774;27;86253;-78
2023/10/29 11:51:05;;;;;;;11.13;1.35;;;15.20;99.90;;;;;;5016674;28;85855;-75
2023/10/29 11:53:32;;;;;;;9.73;1.10;;;15.20;99.90;;;;;;5016410;28;85849;-76
2023/10/29 11:56:04;;;;;;;7.07;0.80;;;15.20;99.90;;;;;;5015607;28;95072;-76
2023/10/29 11:58:30;;;;;;;3.85;0.98;;;15.20;99.90;;;;;;5010740;28;90306;-76
2023/10/29 12:00:57;;;;;;;7.72;0.88;;;15.20;99.90;;;;;;5010389;28;86076;-74
2023/10/29 12:03:23;;;;;;;5.72;0.90;;;15.30;99.90;;;;;;5037896;28;85895;-75
2023/10/29 12:05:49;;;;;;;6.70;0.90;;;15.40;99.90;;;;;;5019588;28;90330;-75
2023/10/29 12:08:16;;;;;;;7.00;0.50;;;15.40;99.90;;;;;;5012887;28;89382;-75
2023/10/29 12:10:46;;;;;;;1.80;0.45;;;15.40;99.90;;;;;;5033405;28;86274;-76
2023/10/29 12:13:12;;;;;;;6.78;0.95;;;15.40;99.90;;;;;;5008009;28;86249;-76
2023/10/29 12:15:39;;;;;;;2.85;0.50;;;15.40;99.90;;;;;;5015540;28;90643;-73
2023/10/29 12:18:04;;;;;;;4.35;0.60;;;15.40;99.90;;;;;;5014045;28;89432;-75
2023/10/29 12:20:31;;;;;;;2.45;0.47;;;15.30;99.90;;;;;;5010848;28;86434;-75
2023/10/29 12:22:57;;;;;;;2.63;0.32;;;15.30;99.90;;;;;;5037350;28;88530;-75
2023/10/29 12:25:27;;;;;;;1.58;0.20;;;15.30;99.90;;;;;;5019077;28;90950;-75
2023/10/29 12:27:54;;;;;;;1.80;0.30;;;15.30;99.90;;;;;;5038284;28;86000;-75
2023/10/29 12:30:36;;;;;;;2.17;0.40;;;15.30;99.90;;;;;;5011538;28;85961;-76
2023/10/29 12:33:25;;;;;;;2.10;0.43;;;15.40;99.90;;;;;;5017532;28;86304;-74
2023/10/29 12:35:56;;;;;;;1.00;0.30;;;15.40;99.90;;;;;;5019143;28;90476;-74
2023/10/29 12:38:23;;;;;;;1.00;0.30;;;15.40;99.90;;;;;;5038878;28;86096;-76
2023/10/29 12:41:11;;;;;;;3.30;0.47;;;15.30;99.90;;;;;;5020707;28;86155;-76
2023/10/29 12:43:49;;;;;;;1.05;0.35;;;15.20;99.90;;;;;;5039087;28;85912;-72
2023/10/29 12:46:24;;;;;;;1.67;0.40;;;15.10;99.90;;;;;;5036823;28;89907;-74
2023/10/29 12:49:04;;;;;;;3.80;0.40;;;15.10;99.90;;;;;;5019799;28;88503;-73
2023/10/29 12:51:34;;;;;;;4.20;0.50;;;15.00;99.90;;;;;;5017780;28;85878;-74
2023/10/29 12:54:20;;;;;;;2.03;0.70;;;15.00;99.90;;;;;;5010267;28;86426;-74
2023/10/29 12:57:11;;;;;;;2.05;0.40;;;14.90;99.90;;;;;;5011623;28;90583;-76
2023/10/29 12:59:48;;;;;;;0.95;0.43;;;14.90;99.90;;;;;;5013538;28;89795;-75
2023/10/29 13:02:33;;;;;;;2.25;0.35;;;14.90;99.90;;;;;;5040300;28;85704;-74
2023/10/29 13:04:59;;;;;;;0.95;0.40;;;14.80;99.90;;;;;;5010801;28;87216;-74
2023/10/29 13:07:24;;;;;;;3.35;0.45;;;14.70;99.90;;;;;;5011852;28;90630;-74
2023/10/29 13:09:52;;;;;;;2.47;0.32;;;14.70;99.90;;;;;;5013188;28;89691;-74
2023/10/29 13:12:20;;;;;;;1.33;0.30;;;14.70;99.90;;;;;;5039805;28;85798;-75
2023/10/29 13:14:48;;;;;;;2.05;0.30;;;14.60;99.90;;;;;;5019417;28;86082;-74
2023/10/29 13:17:14;;;;;;;1.75;0.32;;;14.60;99.90;;;;;;5039997;28;86662;-74
2023/10/29 13:19:43;;;;;;;1.33;0.40;;;14.50;99.90;;;;;;5039980;28;86327;-74
2023/10/29 13:22:09;;;;;;;2.05;0.32;;;14.50;99.90;;;;;;5037569;28;86461;-75
2023/10/29 13:24:35;;;;;;;0.93;0.20;;;14.50;99.90;;;;;;5013286;28;85954;-74
2023/10/29 13:27:01;;;;;;;1.23;0.30;;;14.50;99.90;;;;;;5016251;28;90443;-74
2023/10/29 13:29:45;;;;;;;0.90;0.20;;;14.70;99.90;;;;;;5036656;28;86727;-74
2023/10/29 13:32:15;;;;;;;0.57;0.30;;;14.70;99.90;;;;;;5017692;28;88589;-76
2023/10/29 13:34:41;;;;;;;1.27;0.30;;;14.80;99.90;;;;;;5033993;28;86536;-75
2023/10/29 13:37:06;;;;;;;0.70;0.30;;;14.80;99.90;;;;;;5015971;28;90089;-75
2023/10/29 13:39:34;;;;;;;0.30;0.20;;;14.80;99.90;;;;;;5011983;28;89816;-74
2023/10/29 13:42:00;;;;;;;0.60;0.30;;;14.80;99.90;;;;;;5014282;28;85766;-75
2023/10/29 13:44:25;;;;;;;1.42;0.32;;;14.80;99.90;;;;;;5037083;28;86636;-74
2023/10/29 13:46:51;;;;;;;2.03;0.30;;;14.80;99.90;;;;;;5036409;28;86533;-74
2023/10/29 13:49:25;;;;;;;0.50;0.25;;;14.90;99.90;;;;;;5011632;28;88728;-73
2023/10/29 13:51:51;;;;;;;2.13;0.30;;;14.90;99.90;;;;;;5012885;28;86667;-74
2023/10/29 13:54:16;;;;;;;1.42;0.30;;;15.00;99.90;;;;;;5005660;28;86108;-74
2023/10/29 13:56:45;;;;;;;1.80;0.30;;;15.10;99.90;;;;;;4999225;28;88626;-76
2023/10/29 13:59:11;;;;;;;1.90;0.40;;;15.10;99.90;;;;;;5009317;28;90450;-74
2023/10/29 14:01:51;;;;;;;1.70;0.30;;;15.10;99.90;;;;;;5035623;28;85974;-74
2023/10/29 14:04:17;;;;;;;0.77;0.30;;;15.10;99.90;;;;;;5012829;28;85974;-75
2023/10/29 14:06:46;;;;;;;2.63;0.40;;;15.20;99.90;;;;;;5017473;28;90670;-76
2023/10/29 14:09:12;;;;;;;0.80;0.30;;;15.40;99.90;;;;;;5036304;28;86522;-74
2023/10/29 14:11:38;;;;;;;0.85;0.35;;;15.60;99.90;;;;;;5020829;28;88917;-73
2023/10/29 14:14:11;;;;;;;1.02;0.40;;;15.80;99.90;;;;;;5038794;28;86596;-75
2023/10/29 14:16:37;;;;;;;;;;;16.20;99.90;;;;;;5039051;28;86905;-74
2023/10/29 14:19:07;;;;;;;2.22;0.30;;;16.50;99.90;;;;;;5041108;28;86201;-76
2023/10/29 14:21:33;;;;;;;1.35;0.40;;;16.80;99.90;;;;;;5019887;28;86541;-75
2023/10/29 14:24:34;;;;;;;2.00;0.50;;;17.00;99.90;;;;;;5040426;28;86183;-76
2023/10/29 14:27:00;;;;;;;2.10;0.30;;;17.30;99.90;;;;;;5022418;28;89494;-74
2023/10/29 14:29:45;;;;;;;4.90;0.43;;;17.50;99.90;;;;;;5015405;28;88608;-74
2023/10/29 14:32:11;;;;;;;3.15;0.38;;;17.60;99.90;;;;;;5004069;28;89682;-76
2023/10/29 14:34:57;;;;;;;3.20;0.47;;;17.70;99.90;;;;;;5042159;28;85927;-73
2023/10/29 14:37:23;;;;;;;1.05;0.20;;;17.90;99.90;;;;;;5041994;28;86922;-72
2023/10/29 14:39:56;;;;;;;1.08;0.30;;;18.00;99.90;;;;;;5024073;28;90027;-73
2023/10/29 14:42:22;;;;;;;2.35;0.30;;;18.00;99.90;;;;;;5024347;28;85874;-73
2023/10/29 14:45:09;;;;;;;2.33;0.30;;;18.10;99.50;;;;;;5025690;28;85990;-73
2023/10/29 14:47:34;;;;;;;2.15;0.40;;;18.00;99.90;;;;;;5042071;28;86999;-73
2023/10/29 14:50:46;;;;;;;2.80;0.40;;;17.80;99.80;;;;;;5043415;28;86522;-73
2023/10/29 14:53:12;;;;;;;4.05;0.40;;;17.60;99.90;;;;;;5023294;28;87371;-74
2023/10/29 14:55:48;;;;;;;2.67;0.40;;;17.40;99.90;;;;;;5042420;28;85853;-74
2023/10/29 14:58:14;;;;;;;2.05;0.55;;;17.50;99.90;;;;;;5044050;28;85738;-73
2023/10/29 15:00:53;;;;;;;2.63;0.63;;;17.50;99.90;;;;;;5017033;28;90059;-73
2023/10/29 15:04:01;;;;;;;1.83;0.57;;;17.40;99.90;;;;;;5019258;28;86395;-72
2023/10/29 15:06:27;;;;;;;2.05;0.40;;;17.40;99.90;;;;;;5042829;28;85718;-73
2023/10/29 15:08:52;;;;;;;2.88;0.40;;;17.30;99.90;;;;;;5015402;28;90787;-72
2023/10/29 15:11:36;;;;;;;2.42;0.40;;;17.20;99.90;;;;;;5024281;28;89664;-73
2023/10/29 15:14:04;;;;;;;1.58;0.47;;;17.00;99.90;;;;;;5039588;28;87044;-72
2023/10/29 15:16:42;;;;;;;1.60;0.40;;;16.80;99.90;;;;;;5020590;28;85961;-71
2023/10/29 15:19:08;;;;;;;3.08;0.35;;;16.80;99.90;;;;;;5021847;28;87723;-72
2023/10/29 15:21:34;;;;;;;5.15;0.38;;;16.80;99.90;;;;;;5020974;28;89648;-73
2023/10/29 15:24:00;;;;;;;0.35;0.20;;;16.80;99.90;;;;;;5015167;28;86131;-72
2023/10/29 15:26:26;;;;;;;2.72;0.30;;;16.90;99.90;;;;;;5026265;28;86264;-76
2023/10/29 15:29:01;;;;;;;0.50;0.20;;;17.00;99.90;;;;;;5018390;27;87487;-76
2023/10/29 15:31:27;;;;;;;0.32;0.22;;;17.00;99.90;;;;;;5023161;28;87394;-76
2023/10/29 15:33:52;;;;;;;2.00;0.40;;;17.00;99.90;;;;;;4998192;28;86988;-76
2023/10/29 15:36:18;;;;;;;1.77;0.50;;;17.00;99.90;;;;;;5025577;28;87028;-76
2023/10/29 15:38:45;;;;;;;1.13;0.30;;;16.90;99.90;;;;;;5024755;28;87687;-76
2023/10/29 15:41:10;;;;;;;1.52;0.30;;;16.70;99.90;;;;;;4997781;28;88297;-77
2023/10/29 15:43:36;;;;;;;0.73;0.45;;;16.40;99.90;;;;;;4999498;28;87393;-76
2023/10/29 15:46:05;;;;;;;3.30;0.57;;;16.20;99.90;;;;;;5003401;28;88684;-77
2023/10/29 15:48:32;;;;;;;3.53;0.70;;;16.00;99.90;;;;;;5001689;28;90726;-77
2023/10/29 15:51:00;;;;;;;0.30;0.30;;;15.80;99.90;;;;;;5021345;28;87021;-76
2023/10/29 15:53:28;;;;;;;1.23;0.30;;;15.60;99.90;;;;;;5021103;28;86636;-76
2023/10/29 15:56:03;;;;;;;4.25;0.40;;;15.40;99.90;;;;;;4998881;28;86813;-76
2023/10/29 15:58:29;;;;;;;0.93;0.32;;;15.30;99.90;;;;;;5021284;28;86917;-77
2023/10/29 16:00:56;;;;;;;2.35;0.50;;;15.20;99.90;;;;;;5016487;27;86148;-76
2023/10/29 16:03:22;;;;;;;1.95;0.50;;;15.10;99.90;;;;;;4999107;28;87711;-76
2023/10/29 16:05:48;;;;;;;3.60;0.47;;;15.00;99.90;;;;;;5005815;28;86272;-76
2023/10/29 16:08:16;;;;;;;1.55;0.50;;;14.90;99.90;;;;;;5026064;28;86772;-76
2023/10/29 16:10:41;;;;;;;0.43;0.38;;;14.80;99.90;;;;;;5024131;28;88221;-76
2023/10/29 16:13:07;;;;;;;1.58;0.40;;;14.80;99.90;;;;;;4998892;28;86865;-76
2023/10/29 16:15:35;;;;;;;4.47;0.40;;;14.70;99.90;;;;;;4999487;28;86666;-76
2023/10/29 16:18:02;;;;;;;7.50;0.43;;;14.60;99.90;;;;;;5001468;28;90323;-76
2023/10/29 16:20:28;;;;;;;2.67;0.25;;;14.60;99.90;;;;;;5023360;28;86238;-77
2023/10/29 16:22:56;;;;;;;3.45;0.93;;;14.50;99.90;;;;;;5016057;28;87760;-76
2023/10/29 16:25:22;;;;;;;2.05;0.50;;;14.40;99.90;;;;;;4988170;28;87854;-76
2023/10/29 16:27:48;;;;;;;2.13;0.30;;;14.40;99.90;;;;;;5016966;28;86848;-76
2023/10/29 16:30:14;;;;;;;3.92;0.50;;;14.30;99.90;;;;;;4998134;28;88964;-76
2023/10/29 16:32:39;;;;;;;1.42;0.20;;;14.30;99.90;;;;;;5016699;27;86383;-75
2023/10/29 16:35:05;;;;;;;2.53;0.47;;;14.20;99.90;;;;;;5018184;27;86934;-75
2023/10/29 16:37:31;;;;;;;1.45;0.40;;;14.20;99.90;;;;;;4999382;28;91408;-75
2023/10/29 16:39:57;;;;;;;1.45;0.40;;;14.10;99.90;;;;;;5016587;28;90585;-75
2023/10/29 16:42:22;;;;;;;2.17;0.30;;;14.10;99.90;;;;;;4994483;28;86859;-76
2023/10/29 16:44:48;;;;;;;2.50;0.50;;;14.10;99.90;;;;;;4999591;28;87169;-76
2023/10/29 16:47:14;;;;;;;0.57;0.40;;;14.10;99.90;;;;;;5023831;28;87478;-76
2023/10/29 16:49:39;;;;;;;4.88;0.52;;;14.00;99.90;;;;;;5002229;28;89757;-76
2023/10/29 16:52:05;;;;;;;2.65;0.63;;;14.00;99.90;;;;;;5020699;28;86827;-76
2023/10/29 16:54:32;;;;;;;5.03;0.60;;;14.00;99.90;;;;;;4989332;28;87900;-77
2023/10/29 16:56:57;;;;;;;3.95;0.40;;;14.00;99.90;;;;;;5022459;28;87210;-75
2023/10/29 16:59:23;;;;;;;4.75;0.40;;;14.00;99.90;;;;;;5022184;28;87074;-76
2023/10/29 17:01:54;;;;;;;3.60;1.73;;;14.00;99.90;;;;;;5023151;28;86589;-75
2023/10/29 17:04:20;;;;;;;2.78;0.50;;;14.00;99.90;;;;;;5005270;28;86298;-75
2023/10/29 17:06:48;;;;;;;2.60;0.60;;;14.00;99.90;;;;;;5020467;28;86537;-75
2023/10/29 17:11:49;;;;;;;7.43;0.80;;;13.90;99.90;;;;;;4949426;22;88404;-76
2023/10/29 17:14:15;;;;;;;1.83;0.40;;;13.90;99.90;;;;;;4936755;28;86550;-76
2023/10/29 17:16:42;;;;;;;3.38;0.60;;;14.00;99.90;;;;;;4912116;28;88328;-76
2023/10/29 17:19:10;;;;;;;3.00;0.63;;;14.00;99.90;;;;;;4910103;28;86749;-76
2023/10/29 17:21:36;;;;;;;6.88;1.10;;;13.90;99.90;;;;;;4911475;28;88100;-76
2023/10/29 17:24:03;;;;;;;2.80;0.50;;;14.00;99.90;;;;;;4912511;28;87792;-77
2023/10/29 17:26:46;;;;;;;2.75;0.45;;;14.00;99.90;;;;;;4913812;28;90016;-76
2023/10/29 17:29:12;;;;;;;6.50;0.52;;;14.00;99.90;;;;;;4910903;28;93887;-76
2023/10/29 17:31:37;;;;;;;5.13;0.60;;;13.90;99.90;;;;;;4915176;28;86745;-76
2023/10/29 17:34:03;;;;;;;4.85;0.80;;;13.90;99.90;;;;;;4911556;28;86533;-77
2023/10/29 17:36:29;;;;;;;4.97;0.60;;;13.90;99.90;;;;;;4911528;28;90908;-77
2023/10/29 17:38:57;;;;;;;5.80;0.80;;;13.90;99.90;;;;;;4915745;28;89392;-77
2023/10/29 17:41:23;;;;;;;4.13;0.88;;;13.90;99.90;;;;;;4910818;28;86679;-76
2023/10/29 17:43:51;;;;;;;3.70;0.50;;;13.80;99.90;;;;;;4914318;28;86559;-76
2023/10/29 17:46:41;;;;;;;7.50;1.00;;;13.80;99.90;;;;;;4928150;28;89105;-77
2023/10/29 17:49:15;;;;;;;8.23;1.08;;;13.80;99.90;;;;;;4915704;28;86883;-78
2023/10/29 17:51:40;;;;;;;3.95;0.70;;;13.80;99.90;;;;;;4916887;28;86609;-76
2023/10/29 17:54:26;;;;;;;3.58;0.75;;;13.80;99.90;;;;;;4923738;28;87148;-76
2023/10/29 17:56:53;;;;;;;8.38;0.80;;;13.70;99.90;;;;;;4922218;28;87788;-77
2023/10/29 17:59:20;;;;;;;4.93;0.93;;;13.70;99.90;;;;;;4913964;28;90000;-77
2023/10/29 18:01:47;;;;;;;8.90;1.70;;;13.70;99.90;;;;;;4917254;28;86540;-78
2023/10/29 18:04:30;;;;;;;4.97;0.70;;;13.60;99.90;;;;;;4918357;28;86916;-77
2023/10/29 18:06:58;;;;;;;6.32;0.95;;;13.60;99.90;;;;;;4938934;28;90980;-77
2023/10/29 18:09:26;;;;;;;8.88;1.08;;;13.50;99.90;;;;;;4914312;28;90494;-77
2023/10/29 18:11:53;;;;;;;7.40;0.75;;;13.50;99.90;;;;;;4939228;28;88072;-76
2023/10/29 18:14:36;;;;;;;3.58;0.70;;;13.50;99.90;;;;;;4916063;28;87035;-77
2023/10/29 18:17:04;;;;;;;6.20;0.75;;;13.40;99.90;;;;;;4918849;28;92868;-77